Time;durP1;ratioP1;P1;durP2;ratioP2;P2;SDS_P1;SDS_P2;PMS_P1;PMS_P2;Temp;Humidity;BMP_temperature;BMP_pressure;BME280_temperature;BME280_humidity;BME280_pressure;Samples;Min_cycle;Max_cycle;Signal;HPM_P1;HPM_P2
2022/05/22 00:01:39;;;;;;;0.10;0.10;;;;;;;18.28;69.54;100321.69;5036538;28;20036;-73
2022/05/22 00:04:04;;;;;;;0.17;0.17;;;;;;;18.28;69.49;100328.13;5037190;28;20036;-73
2022/05/22 00:06:35;;;;;;;0.10;0.10;;;;;;;18.09;69.85;100319.41;5036570;28;20033;-72
2022/05/22 00:09:01;;;;;;;0.20;0.20;;;;;;;17.89;71.02;100317.06;5036494;28;20057;-73
2022/05/22 00:11:26;;;;;;;0.10;0.10;;;;;;;17.88;71.34;100314.69;5036504;28;20071;-73
2022/05/22 00:13:52;;;;;;;0.17;0.17;;;;;;;17.82;71.67;100324.75;5036198;28;20083;-73
2022/05/22 00:16:36;;;;;;;0.20;0.20;;;;;;;17.88;71.87;100315.47;5036178;28;20123;-73
2022/05/22 00:19:19;;;;;;;0.20;0.20;;;;;;;17.82;71.32;100310.69;5022178;28;20115;-73
2022/05/22 00:21:44;;;;;;;0.20;0.20;;;;;;;17.83;71.93;100317.91;5036241;28;20392;-73
2022/05/22 00:24:12;;;;;;;0.10;0.10;;;;;;;17.82;71.79;100310.69;5035842;28;20025;-73
2022/05/22 00:26:39;;;;;;;0.20;0.20;;;;;;;17.70;72.58;100312.72;5035511;28;20053;-73
2022/05/22 00:29:05;;;;;;;0.10;0.10;;;;;;;17.71;72.53;100313.53;5036249;28;20538;-73
2022/05/22 00:31:30;;;;;;;0.20;0.20;;;;;;;17.75;72.21;100306.69;5019600;28;20132;-73
2022/05/22 00:33:56;;;;;;;0.10;0.10;;;;;;;17.73;72.00;100303.47;5035883;28;20029;-73
2022/05/22 00:36:22;;;;;;;0.20;0.20;;;;;;;17.64;72.44;100299.50;5036056;28;20029;-73
2022/05/22 00:38:48;;;;;;;0.20;0.20;;;;;;;17.68;72.50;100300.25;5019539;28;20041;-73
2022/05/22 00:41:14;;;;;;;0.10;0.10;;;;;;;17.61;72.00;100295.47;5036364;28;20033;-73
2022/05/22 00:43:48;;;;;;;0.17;0.17;;;;;;;17.59;73.01;100295.09;5035706;28;20048;-72
2022/05/22 00:46:16;;;;;;;0.10;0.10;;;;;;;17.56;71.70;100284.63;5035392;28;20029;-72
2022/05/22 00:48:46;;;;;;;0.15;0.15;;;;;;;17.56;71.69;100293.06;5035665;28;20029;-72
2022/05/22 00:51:19;;;;;;;0.10;0.10;;;;;;;17.53;71.81;100293.91;5053179;28;20036;-73
2022/05/22 00:53:55;;;;;;;0.20;0.20;;;;;;;17.54;72.57;100290.69;5035714;28;20082;-74
2022/05/22 00:56:26;;;;;;;0.10;0.10;;;;;;;17.58;71.98;100289.84;5033029;28;20037;-74
2022/05/22 00:58:54;;;;;;;0.10;0.10;;;;;;;17.58;72.00;100284.22;5035536;28;20021;-74
2022/05/22 01:01:20;;;;;;;0.10;0.10;;;;;;;17.58;72.71;100285.03;5035489;28;20534;-73
2022/05/22 01:03:46;;;;;;;0.20;0.20;;;;;;;17.61;72.02;100284.22;5035492;28;20033;-73
2022/05/22 01:06:20;;;;;;;0.20;0.20;;;;;;;17.67;71.58;100287.41;5019227;28;20064;-74
2022/05/22 01:08:47;;;;;;;0.10;0.10;;;;;;;17.65;71.06;100272.94;5036140;28;20029;-73
2022/05/22 01:11:28;;;;;;;0.10;0.10;;;;;;;17.55;71.93;100275.41;5036064;28;20036;-73
2022/05/22 01:14:00;;;;;;;0.20;0.20;;;;;;;17.62;71.77;100279.38;5035623;28;20021;-73
2022/05/22 01:16:26;;;;;;;0.10;0.10;;;;;;;17.55;71.53;100281.03;5035369;28;20033;-73
2022/05/22 01:18:54;;;;;;;0.20;0.20;;;;;;;17.49;71.14;100281.84;5035465;28;20021;-73
2022/05/22 01:21:23;;;;;;;0.10;0.10;;;;;;;17.44;71.47;100282.28;5035889;28;20031;-73
2022/05/22 01:23:50;;;;;;;0.10;0.10;;;;;;;17.42;71.84;100282.69;5019506;28;20380;-73
2022/05/22 01:26:17;;;;;;;0.10;0.10;;;;;;;17.44;71.95;100279.47;5035323;28;20111;-73
2022/05/22 01:28:42;;;;;;;0.20;0.20;;;;;;;17.38;72.18;100272.66;5035304;28;20604;-73
2022/05/22 01:31:10;;;;;;;0.20;0.20;;;;;;;17.28;72.14;100243.34;5053104;28;20053;-73
2022/05/22 01:33:38;;;;;;;0.20;0.20;;;;;;;17.50;71.89;100269.38;5035229;28;20032;-74
2022/05/22 01:36:06;;;;;;;0.20;0.20;;;;;;;17.45;72.02;100267.78;5053410;28;20029;-75
2022/05/22 01:38:36;;;;;;;0.20;0.20;;;;;;;17.53;71.51;100265.78;5035294;28;20095;-73
2022/05/22 01:41:02;;;;;;;0.20;0.20;;;;;;;17.43;71.48;100256.16;5035185;28;20086;-73
2022/05/22 01:43:28;;;;;;;0.20;0.20;;;;;;;17.39;71.99;100260.19;5035677;28;20032;-73
2022/05/22 01:45:55;;;;;;;0.20;0.20;;;;;;;17.27;72.60;100265.06;5035397;28;20460;-73
2022/05/22 01:48:22;;;;;;;0.20;0.20;;;;;;;17.29;73.50;100248.56;5052668;28;20483;-73
2022/05/22 01:50:48;;;;;;;0.10;0.10;;;;;;;17.33;73.28;100242.13;5018877;28;20037;-73
2022/05/22 01:53:15;;;;;;;0.20;0.20;;;;;;;17.34;72.76;100250.16;5035651;28;20029;-73
2022/05/22 01:55:44;;;;;;;0.20;0.20;;;;;;;17.39;72.94;100254.56;5052881;28;20104;-73
2022/05/22 01:58:10;;;;;;;0.20;0.20;;;;;;;17.44;73.30;100248.53;5035030;28;20032;-73
2022/05/22 02:00:36;;;;;;;0.20;0.20;;;;;;;17.50;73.06;100249.69;5035024;28;20029;-73
2022/05/22 02:03:03;;;;;;;0.20;0.20;;;;;;;17.50;73.02;100250.50;5035001;28;20032;-73
2022/05/22 02:05:29;;;;;;;0.10;0.10;;;;;;;17.60;72.90;100246.03;5034960;28;20036;-73
2022/05/22 02:10:40;;;;;;;0.20;0.20;;;;;;;17.50;72.19;100246.88;5055415;28;20510;-73
2022/05/22 02:13:07;;;;;;;0.20;0.20;;;;;;;17.45;72.15;100247.31;5038459;28;20029;-73
2022/05/22 02:15:32;;;;;;;0.15;0.15;;;;;;;17.44;72.60;100245.72;5022241;28;20037;-73
2022/05/22 02:17:58;;;;;;;0.20;0.20;;;;;;;17.52;73.46;100239.66;5038374;28;20037;-73
2022/05/22 02:20:25;;;;;;;0.10;0.10;;;;;;;17.54;73.00;100244.88;5038593;28;20044;-73
2022/05/22 02:22:53;;;;;;;0.20;0.20;;;;;;;17.54;72.52;100244.88;5038170;28;20104;-73
2022/05/22 02:25:23;;;;;;;0.10;0.10;;;;;;;17.49;72.31;100243.28;5037884;28;20049;-73
2022/05/22 02:27:49;;;;;;;0.10;0.10;;;;;;;17.50;72.89;100241.25;5038659;28;20028;-73
2022/05/22 02:30:19;;;;;;;0.20;0.20;;;;;;;17.48;73.41;100238.06;5038367;28;20452;-73
2022/05/22 02:32:45;;;;;;;0.10;0.10;;;;;;;17.54;73.20;100240.03;5038609;28;20021;-73
2022/05/22 02:35:13;;;;;;;0.15;0.15;;;;;;;17.55;73.27;100241.63;5037976;28;20036;-73
2022/05/22 02:37:47;;;;;;;0.10;0.10;;;;;;;17.49;73.19;100236.84;5037983;28;20032;-73
2022/05/22 02:40:14;;;;;;;0.10;0.10;;;;;;;17.47;73.47;100233.63;5038228;28;20486;-73
2022/05/22 02:42:49;;;;;;;0.10;0.10;;;;;;;17.52;73.80;100230.38;5037787;28;20025;-73
2022/05/22 02:45:20;;;;;;;0.10;0.10;;;;;;;17.48;73.79;100230.44;5021942;28;20029;-73
2022/05/22 02:47:46;;;;;;;0.10;0.10;;;;;;;17.42;73.79;100220.00;5038012;28;20111;-72
2022/05/22 02:50:14;;;;;;;0.10;0.10;;;;;;;17.51;73.82;100231.59;5037682;28;20033;-73
2022/05/22 02:52:40;;;;;;;0.10;0.10;;;;;;;17.58;74.39;100231.59;5037753;28;20517;-73
2022/05/22 02:55:06;;;;;;;0.10;0.10;;;;;;;17.61;73.57;100229.97;5037286;28;20120;-73
2022/05/22 02:57:33;;;;;;;0.20;0.20;;;;;;;17.57;73.52;100227.16;5038081;28;20059;-73
2022/05/22 02:59:59;;;;;;;0.20;0.20;;;;;;;17.63;73.53;100225.53;5037538;28;20032;-73
2022/05/22 03:02:26;;;;;;;0.10;0.10;;;;;;;17.58;73.67;100222.31;5038027;28;20028;-73
2022/05/22 03:04:51;;;;;;;0.20;0.20;;;;;;;17.57;73.53;100227.16;5037697;28;20063;-72
2022/05/22 03:07:20;;;;;;;0.10;0.10;;;;;;;17.60;74.15;100231.19;5037275;28;20033;-72
2022/05/22 03:09:47;;;;;;;0.10;0.10;;;;;;;17.51;74.45;100220.34;5037612;28;20029;-72
2022/05/22 03:12:16;;;;;;;0.10;0.10;;;;;;;17.50;73.92;100213.13;5037323;28;20041;-72
2022/05/22 03:14:46;;;;;;;0.20;0.20;;;;;;;17.54;74.20;100211.13;5037793;28;20045;-72
2022/05/22 03:17:14;;;;;;;0.20;0.20;;;;;;;17.57;74.20;100215.09;5037759;28;20071;-73
2022/05/22 03:19:40;;;;;;;0.10;0.10;;;;;;;17.59;73.37;100212.69;5037368;28;20487;-73
2022/05/22 03:22:07;;;;;;;0.20;0.20;;;;;;;17.58;72.83;100206.28;5036517;28;20116;-72
2022/05/22 03:24:33;;;;;;;0.10;0.10;;;;;;;17.58;73.00;100211.91;5037081;28;20044;-73
2022/05/22 03:27:01;;;;;;;0.20;0.20;;;;;;;17.62;72.89;100215.47;5037573;28;20380;-73
2022/05/22 03:29:27;;;;;;;0.20;0.20;;;;;;;17.57;74.04;100207.47;5054888;28;20039;-73
2022/05/22 03:31:53;;;;;;;0.13;0.13;;;;;;;17.52;73.67;100210.69;5054829;28;20024;-73
2022/05/22 03:34:19;;;;;;;0.20;0.20;;;;;;;17.52;74.17;100207.88;5037170;28;20033;-73
2022/05/22 03:36:44;;;;;;;0.17;0.17;;;;;;;17.49;73.84;100211.53;5036934;28;20071;-74
2022/05/22 03:39:10;;;;;;;0.10;0.10;;;;;;;17.50;74.12;100207.50;5036841;28;20033;-73
2022/05/22 03:41:37;;;;;;;0.10;0.10;;;;;;;17.54;74.24;100213.94;5037107;28;20029;-73
2022/05/22 03:44:05;;;;;;;0.20;0.20;;;;;;;17.55;74.06;100216.31;5036630;28;20494;-74
2022/05/22 03:46:32;;;;;;;0.20;0.20;;;;;;;17.58;74.40;100217.53;5054776;28;20025;-73
2022/05/22 03:48:58;;;;;;;0.10;0.10;;;;;;;17.62;74.43;100212.66;5037435;28;20361;-74
2022/05/22 03:51:24;;;;;;;0.10;0.10;;;;;;;17.63;74.34;100210.66;5020398;28;20029;-74
2022/05/22 03:53:50;;;;;;;0.13;0.13;;;;;;;17.70;74.31;100217.06;5036568;28;20037;-74
2022/05/22 03:56:21;;;;;;;0.17;0.17;;;;;;;17.71;73.79;100210.19;5036672;28;20082;-73
2022/05/22 03:58:48;;;;;;;0.20;0.20;;;;;;;17.78;72.99;100215.81;5036399;28;20067;-73
2022/05/22 04:01:14;;;;;;;0.20;0.20;;;;;;;17.75;72.56;100216.66;5037013;28;20033;-73
2022/05/22 04:03:40;;;;;;;0.10;0.10;;;;;;;17.67;73.45;100219.88;5037096;28;20470;-73
2022/05/22 04:06:09;;;;;;;0.20;0.20;;;;;;;17.67;73.08;100215.03;5036338;28;20029;-74
2022/05/22 04:08:41;;;;;;;0.10;0.10;;;;;;;17.82;73.48;100215.81;5054125;28;20486;-74
2022/05/22 04:11:16;;;;;;;0.20;0.20;;;;;;;18.14;72.42;100221.22;5036554;28;20050;-74
2022/05/22 04:13:42;;;;;;;0.10;0.10;;;;;;;18.39;70.32;100214.59;5036485;28;20032;-74
2022/05/22 04:16:09;;;;;;;0.20;0.20;;;;;;;18.73;69.85;100215.50;5036175;28;20032;-74
2022/05/22 04:18:34;;;;;;;0.10;0.10;;;;;;;19.04;68.45;100205.09;5036163;28;20032;-74
2022/05/22 04:21:00;;;;;;;0.13;0.13;;;;;;;19.44;67.21;100215.91;5036631;28;20121;-74
2022/05/22 04:26:12;;;;;;;0.10;0.10;;;;;;;20.18;63.97;100216.88;5032749;28;20064;-74
2022/05/22 04:28:37;;;;;;;0.10;0.10;;;;;;;20.56;62.87;100220.34;5016442;28;20034;-74
2022/05/22 04:31:03;;;;;;;0.20;0.20;;;;;;;20.91;61.30;100224.53;5032565;28;20500;-75
2022/05/22 04:33:32;;;;;;;0.10;0.10;;;;;;;21.36;60.52;100215.63;5032642;28;20405;-74
2022/05/22 04:35:59;;;;;;;0.10;0.10;;;;;;;21.65;58.93;100217.84;5032892;28;20038;-74
2022/05/22 04:38:25;;;;;;;0.10;0.10;;;;;;;21.90;58.07;100220.91;5032545;28;20128;-74
2022/05/22 04:40:59;;;;;;;0.10;0.10;;;;;;;22.26;57.67;100217.25;5033338;28;20116;-74
2022/05/22 04:43:26;;;;;;;0.10;0.10;;;;;;;22.53;55.56;100221.84;5032153;28;20164;-74
2022/05/22 04:45:52;;;;;;;0.10;0.10;;;;;;;22.44;55.74;100216.81;5032462;28;20582;-74
2022/05/22 04:48:19;;;;;;;0.17;0.17;;;;;;;22.76;55.40;100215.97;5033444;28;20025;-74
2022/05/22 04:50:46;;;;;;;0.10;0.10;;;;;;;23.17;53.91;100225.81;5033043;28;20030;-74
2022/05/22 04:53:13;;;;;;;0.10;0.10;;;;;;;23.45;53.48;100222.19;5031874;28;20043;-75
2022/05/22 04:55:38;;;;;;;0.10;0.10;;;;;;;23.78;52.49;100224.88;5016179;28;20123;-74
2022/05/22 04:58:04;;;;;;;0.10;0.10;;;;;;;24.07;50.86;100229.66;5032637;28;20494;-74
2022/05/22 05:00:30;;;;;;;0.10;0.10;;;;;;;24.45;50.55;100232.50;5032308;28;20392;-75
2022/05/22 05:02:55;;;;;;;0.10;0.10;;;;;;;24.75;49.47;100229.03;5015970;28;20128;-75
2022/05/22 05:05:21;;;;;;;0.10;0.10;;;;;;;25.01;49.38;100229.75;5032184;28;20112;-74
2022/05/22 05:07:47;;;;;;;0.10;0.10;;;;;;;24.41;49.10;100224.13;5032446;28;20057;-74
2022/05/22 05:10:13;;;;;;;0.10;0.10;;;;;;;24.52;49.07;100221.72;5033136;28;20038;-74
2022/05/22 05:12:40;;;;;;;0.10;0.10;;;;;;;24.70;50.03;100223.94;5031557;28;20087;-73
2022/05/22 05:15:09;;;;;;;0.10;0.10;;;;;;;24.90;49.13;100220.81;5032002;28;20116;-74
2022/05/22 05:17:35;;;;;;;0.10;0.10;;;;;;;24.97;49.54;100225.44;5031954;28;20030;-74
2022/05/22 05:20:01;;;;;;;0.10;0.10;;;;;;;24.67;49.15;100232.63;5032862;28;20121;-74
2022/05/22 05:22:30;;;;;;;0.10;0.10;;;;;;;24.68;48.82;100223.59;5031983;28;20037;-74
2022/05/22 05:24:56;;;;;;;0.10;0.10;;;;;;;24.29;50.67;100233.44;5031788;28;20530;-74
2022/05/22 05:27:21;;;;;;;0.10;0.10;;;;;;;23.69;53.87;100224.75;5032066;28;20025;-75
2022/05/22 05:29:47;;;;;;;0.10;0.10;;;;;;;23.94;52.92;100224.00;5032360;28;20451;-76
2022/05/22 05:32:12;;;;;;;0.10;0.10;;;;;;;23.82;52.29;100227.63;5031811;28;20109;-74
2022/05/22 05:34:38;;;;;;;0.10;0.10;;;;;;;23.13;55.02;100225.94;5032303;28;20037;-75
2022/05/22 05:37:04;;;;;;;0.10;0.10;;;;;;;23.47;52.12;100231.03;5031452;28;20029;-73
2022/05/22 05:39:32;;;;;;;0.10;0.10;;;;;;;23.24;53.40;100228.47;5031635;28;20064;-74
2022/05/22 05:41:58;;;;;;;0.10;0.10;;;;;;;22.58;55.17;100232.66;5031714;28;20063;-73
2022/05/22 05:44:26;;;;;;;0.10;0.10;;;;;;;22.64;56.35;100231.69;5033211;28;20056;-74
2022/05/22 05:46:51;;;;;;;0.10;0.10;;;;;;;23.40;53.91;100227.63;5036032;28;20091;-74
2022/05/22 05:49:17;;;;;;;0.10;0.10;;;;;;;23.60;54.33;100227.47;5035433;28;20476;-74
2022/05/22 05:51:42;;;;;;;0.10;0.10;;;;;;;24.11;52.04;100236.03;5035935;28;20026;-73
2022/05/22 05:54:08;;;;;;;0.10;0.10;;;;;;;24.09;52.10;100236.50;5036678;28;20100;-74
2022/05/22 05:56:37;;;;;;;0.10;0.10;;;;;;;23.81;52.73;100240.22;5035479;28;20025;-74
2022/05/22 05:59:03;;;;;;;0.10;0.10;;;;;;;23.77;53.14;100237.50;5035548;28;20036;-74
2022/05/22 06:01:29;;;;;;;0.10;0.10;;;;;;;24.23;52.40;100232.41;5035090;28;20033;-74
2022/05/22 06:03:54;;;;;;;0.10;0.10;;;;;;;24.59;51.77;100231.25;5035037;28;20087;-74
2022/05/22 06:06:20;;;;;;;0.10;0.10;;;;;;;24.12;52.34;100234.78;5035045;28;20037;-74
2022/05/22 06:08:46;;;;;;;0.10;0.10;;;;;;;24.50;50.96;100235.59;5035158;28;20470;-74
2022/05/22 06:11:11;;;;;;;0.10;0.10;;;;;;;24.59;50.28;100226.34;5035023;28;20041;-74
2022/05/22 06:13:37;;;;;;;0.10;0.10;;;;;;;24.38;52.05;100235.59;5035282;28;20026;-74
2022/05/22 06:16:04;;;;;;;0.10;0.10;;;;;;;23.96;53.78;100232.84;5035254;28;20029;-74
2022/05/22 06:18:30;;;;;;;0.10;0.10;;;;;;;24.23;52.02;100235.25;5036397;28;20068;-73
2022/05/22 06:20:56;;;;;;;0.10;0.10;;;;;;;24.11;52.06;100238.88;5034813;28;20053;-74
2022/05/22 06:23:23;;;;;;;0.10;0.10;;;;;;;25.15;50.81;100233.41;5034550;28;20116;-76
2022/05/22 06:25:49;;;;;;;0.10;0.10;;;;;;;26.02;47.46;100233.31;5034009;28;20511;-74
2022/05/22 06:28:15;;;;;;;0.10;0.10;;;;;;;25.37;48.54;100236.25;5035166;28;20064;-74
2022/05/22 06:30:41;;;;;;;0.10;0.10;;;;;;;25.71;48.72;100239.00;5035697;28;20041;-73
2022/05/22 06:33:17;;;;;;;0.10;0.10;;;;;;;25.39;48.75;100237.34;5034914;28;20025;-74
2022/05/22 06:35:44;;;;;;;0.10;0.10;;;;;;;26.30;46.83;100244.84;5035208;28;20414;-74
2022/05/22 06:40:55;;;;;;;0.10;0.10;;;;;;;26.53;45.66;100232.91;5036128;28;20076;-74
2022/05/22 06:43:23;;;;;;;0.10;0.10;;;;;;;26.33;46.12;100238.22;5034458;28;20052;-74
2022/05/22 06:45:50;;;;;;;0.10;0.10;;;;;;;26.24;47.21;100243.88;5034765;28;20040;-75
2022/05/22 06:48:19;;;;;;;0.10;0.10;;;;;;;25.75;46.92;100242.53;5035709;28;20068;-74
2022/05/22 06:50:45;;;;;;;0.10;0.10;;;;;;;25.60;47.44;100247.94;5034376;28;20037;-73
2022/05/22 06:53:10;;;;;;;0.10;0.10;;;;;;;24.72;48.96;100246.25;5034498;28;20025;-74
2022/05/22 06:55:36;;;;;;;0.10;0.10;;;;;;;24.27;52.11;100244.44;5033353;28;20125;-73
2022/05/22 06:58:01;;;;;;;0.10;0.10;;;;;;;23.47;53.72;100242.41;5033959;28;20049;-70
2022/05/22 07:00:27;;;;;;;0.10;0.10;;;;;;;23.41;54.71;100247.03;5034218;28;20065;-70
2022/05/22 07:02:53;;;;;;;0.10;0.10;;;;;;;23.49;54.52;100239.13;5034056;28;20439;-71
2022/05/22 07:05:20;;;;;;;0.13;0.13;;;;;;;23.38;54.11;100232.94;5034279;28;20391;-71
2022/05/22 07:07:46;;;;;;;0.10;0.10;;;;;;;23.42;54.43;100231.59;5034372;28;20022;-73
2022/05/22 07:10:13;;;;;;;0.10;0.10;;;;;;;23.74;52.53;100235.56;5034222;28;20464;-70
2022/05/22 07:12:38;;;;;;;0.10;0.10;;;;;;;23.61;53.76;100234.72;5033976;28;20033;-73
2022/05/22 07:15:05;;;;;;;0.10;0.10;;;;;;;24.09;52.57;100239.34;5034489;28;20029;-73
2022/05/22 07:17:31;;;;;;;0.10;0.10;;;;;;;24.20;52.73;100234.13;5034070;28;20175;-71
2022/05/22 07:19:58;;;;;;;0.10;0.10;;;;;;;24.18;52.13;100233.78;5034120;28;20040;-74
2022/05/22 07:22:24;;;;;;;0.10;0.10;;;;;;;24.66;51.06;100228.16;5034615;28;20036;-73
2022/05/22 07:24:50;;;;;;;0.10;0.10;;;;;;;24.60;50.94;100232.84;5033237;28;20053;-73
2022/05/22 07:27:16;;;;;;;0.10;0.10;;;;;;;24.65;51.02;100232.25;5033657;28;20025;-72
2022/05/22 07:29:42;;;;;;;0.10;0.10;;;;;;;24.27;49.92;100218.88;5034109;28;20333;-74
2022/05/22 07:32:08;;;;;;;0.10;0.10;;;;;;;24.30;50.31;100223.66;5017053;28;20030;-72
2022/05/22 07:34:34;;;;;;;0.10;0.10;;;;;;;24.54;50.15;100216.34;5033559;28;20049;-71
2022/05/22 07:37:04;;;;;;;0.10;0.10;;;;;;;24.78;49.58;100218.81;5033569;28;20028;-71
2022/05/22 07:39:31;;;;;;;0.10;0.10;;;;;;;24.22;50.44;100213.75;5033555;28;20039;-70
2022/05/22 07:41:57;;;;;;;0.10;0.10;;;;;;;24.49;50.16;100208.41;5033315;28;20029;-71
2022/05/22 07:44:25;;;;;;;0.10;0.10;;;;;;;24.16;50.70;100212.72;5033427;28;20400;-71
2022/05/22 07:46:51;;;;;;;0.10;0.10;;;;;;;23.97;51.49;100211.69;5033626;28;20084;-72
2022/05/22 07:52:08;;;;;;;0.10;0.10;;;;;;;24.21;50.61;100209.31;5034983;28;20045;-71
2022/05/22 07:54:39;;;;;;;0.10;0.10;;;;;;;24.00;50.25;100207.97;5033176;28;20133;-70
2022/05/22 07:57:06;;;;;;;0.10;0.10;;;;;;;23.69;51.85;100202.03;5033701;28;20021;-69
2022/05/22 07:59:37;;;;;;;0.10;0.10;;;;;;;23.43;53.13;100212.50;5016650;28;20044;-69
2022/05/22 08:02:04;;;;;;;0.10;0.10;;;;;;;23.53;53.17;100205.72;5032911;28;20496;-69
2022/05/22 08:04:30;;;;;;;0.20;0.20;;;;;;;23.51;53.58;100208.22;5033719;28;20033;-70
2022/05/22 08:06:56;;;;;;;0.10;0.10;;;;;;;23.84;52.17;100208.88;5032787;28;20028;-70
2022/05/22 08:09:22;;;;;;;0.10;0.10;;;;;;;23.79;52.28;100212.28;5032919;28;20030;-69
2022/05/22 08:11:47;;;;;;;0.10;0.10;;;;;;;23.95;51.78;100215.00;5032589;28;20025;-70
2022/05/22 08:14:15;;;;;;;0.10;0.10;;;;;;;23.96;51.94;100213.75;5032558;28;20164;-69
2022/05/22 08:16:41;;;;;;;0.10;0.10;;;;;;;23.68;52.48;100208.97;5032819;28;20025;-70
2022/05/22 08:19:07;;;;;;;0.10;0.10;;;;;;;23.78;52.67;100213.53;5032560;28;20035;-70
2022/05/22 08:21:33;;;;;;;0.10;0.10;;;;;;;23.97;51.99;100206.84;5032575;28;20108;-71
2022/05/22 08:24:00;;;;;;;0.15;0.15;;;;;;;24.05;51.72;100198.88;5032327;28;20032;-70
2022/05/22 08:26:27;;;;;;;0.10;0.10;;;;;;;24.42;50.33;100196.47;5049903;28;20045;-70
2022/05/22 08:28:55;;;;;;;0.10;0.10;;;;;;;24.48;50.44;100203.16;5036292;28;20025;-72
2022/05/22 08:31:21;;;;;;;0.10;0.10;;;;;;;24.69;50.47;100198.81;5035735;28;20090;-70
2022/05/22 08:33:47;;;;;;;0.10;0.10;;;;;;;24.91;49.41;100193.94;5035671;28;20029;-71
2022/05/22 08:36:12;;;;;;;0.10;0.10;;;;;;;25.15;49.27;100202.06;5035650;28;20029;-70
2022/05/22 08:38:38;;;;;;;0.10;0.10;;;;;;;24.96;49.02;100196.19;5035237;28;20043;-70
2022/05/22 08:41:29;;;;;;;0.10;0.10;;;;;;;25.33;48.09;100202.19;5035339;28;20025;-70
2022/05/22 08:44:02;;;;;;;0.10;0.10;;;;;;;25.47;47.67;100198.81;5035887;28;20039;-69
2022/05/22 08:46:28;;;;;;;0.10;0.10;;;;;;;26.27;46.07;100194.47;5035365;28;20472;-70
2022/05/22 08:48:57;;;;;;;0.10;0.10;;;;;;;26.31;45.31;100195.09;5035803;28;20025;-70
2022/05/22 08:51:39;;;;;;;0.10;0.10;;;;;;;25.52;47.10;100198.22;5035421;28;20025;-70
2022/05/22 08:54:22;;;;;;;0.10;0.10;;;;;;;25.99;46.37;100197.19;5036310;28;20102;-69
2022/05/22 08:59:36;;;;;;;0.10;0.10;;;;;;;26.26;45.67;100190.81;5053775;28;20561;-70
2022/05/22 09:02:21;;;;;;;0.10;0.10;;;;;;;26.69;45.04;100196.81;5053082;28;20021;-70
2022/05/22 09:04:58;;;;;;;0.10;0.10;;;;;;;26.86;44.46;100195.22;5035182;28;20024;-70
2022/05/22 09:07:43;;;;;;;0.10;0.10;;;;;;;26.92;44.25;100199.03;5033337;28;20033;-71
2022/05/22 09:10:17;;;;;;;0.10;0.10;;;;;;;27.07;44.22;100185.72;5035545;28;20434;-70
2022/05/22 09:13:07;;;;;;;0.10;0.10;;;;;;;26.95;43.38;100189.50;5035447;28;20365;-72
2022/05/22 09:15:55;;;;;;;0.10;0.10;;;;;;;27.32;43.57;100180.94;5035610;28;20460;-70
2022/05/22 09:18:37;;;;;;;0.10;0.10;;;;;;;27.48;43.03;100192.00;5035599;28;20444;-71
2022/05/22 09:21:20;;;;;;;0.10;0.10;;;;;;;27.73;42.64;100184.34;5039611;28;20016;-70
2022/05/22 09:23:59;;;;;;;0.10;0.10;;;;;;;28.00;42.01;100178.53;5037980;28;20425;-70
2022/05/22 09:27:06;;;;;;;0.10;0.10;;;;;;;28.47;40.61;100184.81;5035238;28;20061;-70
2022/05/22 09:29:39;;;;;;;0.10;0.10;;;;;;;28.52;40.17;100147.75;4959464;28;20120;-69
2022/05/22 09:32:30;;;;;;;0.10;0.10;;;;;;;27.24;43.24;100180.47;4960161;28;20355;-70
2022/05/22 09:35:01;;;;;;;0.10;0.10;;;;;;;27.74;41.31;100183.09;5010546;28;20049;-70
2022/05/22 09:37:42;;;;;;;0.10;0.10;;;;;;;27.72;42.77;100177.06;5036343;28;20033;-70
2022/05/22 09:40:13;;;;;;;0.10;0.10;;;;;;;27.60;42.83;100173.09;5035433;28;20157;-71
2022/05/22 09:42:39;;;;;;;0.10;0.10;;;;;;;27.47;42.90;100181.84;5035386;28;20022;-70
2022/05/22 09:45:41;;;;;;;0.10;0.10;;;;;;;27.45;44.23;100177.91;5035414;28;20025;-71
2022/05/22 09:48:10;;;;;;;0.10;0.10;;;;;;;27.54;44.13;100177.88;5035657;28;20480;-71
2022/05/22 09:50:47;;;;;;;0.10;0.10;;;;;;;27.35;45.42;100171.41;5035672;28;20147;-71
2022/05/22 09:53:42;;;;;;;0.10;0.10;;;;;;;27.73;43.91;100158.63;5035055;28;20029;-71
2022/05/22 09:56:45;;;;;;;0.10;0.10;;;;;;;26.96;45.11;100171.13;5001622;28;20044;-70
2022/05/22 09:59:55;;;;;;;0.10;0.10;;;;;;;27.27;46.37;100167.28;5036542;28;20025;-70
2022/05/22 10:02:48;;;;;;;0.10;0.10;;;;;;;27.13;45.34;100180.97;5014454;28;20175;-70
2022/05/22 10:05:24;;;;;;;;;;;;;;;27.77;44.24;100174.34;5035565;28;20504;-70
2022/05/22 10:08:01;;;;;;;0.10;0.10;;;;;;;28.32;43.08;100179.78;5035150;28;20466;-71
2022/05/22 10:10:29;;;;;;;0.10;0.10;;;;;;;29.46;41.29;100181.63;5035651;28;20038;-72
2022/05/22 10:13:11;;;;;;;0.10;0.10;;;;;;;29.34;40.31;100172.03;5035520;28;20025;-72
2022/05/22 10:15:45;;;;;;;0.10;0.10;;;;;;;29.53;40.30;100168.97;5034978;28;20029;-69
2022/05/22 10:18:19;;;;;;;0.10;0.10;;;;;;;29.71;38.97;100172.44;5035071;28;20472;-69
2022/05/22 10:20:47;;;;;;;0.10;0.10;;;;;;;29.68;40.20;100164.84;5035230;28;20099;-70
2022/05/22 10:23:24;;;;;;;0.10;0.10;;;;;;;28.98;41.75;100164.59;5034804;28;20079;-70
2022/05/22 10:25:50;;;;;;;0.10;0.10;;;;;;;28.37;42.89;100155.47;5034575;28;20563;-69
2022/05/22 10:28:25;;;;;;;0.10;0.10;;;;;;;28.32;42.96;100159.75;5035513;28;20061;-71
2022/05/22 10:31:10;;;;;;;0.10;0.10;;;;;;;27.92;43.92;100157.28;5033649;28;20525;-70
2022/05/22 10:33:49;;;;;;;0.10;0.10;;;;;;;27.04;46.45;100155.25;5034918;28;20079;-71
2022/05/22 10:36:22;;;;;;;0.10;0.10;;;;;;;27.56;45.59;100150.41;5034880;28;20460;-73
2022/05/22 10:39:17;;;;;;;0.10;0.10;;;;;;;27.66;45.24;100154.81;5035610;28;20522;-73
2022/05/22 10:45:35;;;;;;;0.10;0.10;;;;;;;28.05;45.23;100154.19;5036204;28;20045;-71
2022/05/22 10:48:19;;;;;;;0.10;0.10;;;;;;;28.88;42.86;100143.81;5024572;28;20037;-73
2022/05/22 10:51:13;;;;;;;0.10;0.10;;;;;;;28.75;42.86;100142.47;5034738;28;20030;-72
2022/05/22 10:53:40;;;;;;;0.10;0.10;;;;;;;29.50;41.24;100150.69;5034274;28;20159;-73
2022/05/22 10:56:17;;;;;;;0.10;0.10;;;;;;;29.42;41.63;100143.78;5034242;28;20033;-71
2022/05/22 10:58:55;;;;;;;0.10;0.10;;;;;;;29.75;41.42;100140.72;5034666;28;20033;-71
2022/05/22 11:01:31;;;;;;;0.10;0.10;;;;;;;29.34;41.71;100134.78;5034002;28;20040;-71
2022/05/22 11:04:07;;;;;;;0.10;0.10;;;;;;;28.18;44.14;100126.97;5034684;28;20035;-70
2022/05/22 11:06:34;;;;;;;0.10;0.10;;;;;;;28.82;43.46;100116.34;5034458;28;20040;-71
2022/05/22 11:09:00;;;;;;;0.10;0.10;;;;;;;29.11;43.22;100121.34;5034645;28;20095;-71
2022/05/22 11:11:30;;;;;;;0.10;0.10;;;;;;;28.56;43.98;100121.81;5034492;28;20467;-71
2022/05/22 11:14:19;;;;;;;0.10;0.10;;;;;;;28.38;45.08;100120.66;5035359;28;20037;-72
2022/05/22 11:16:45;;;;;;;0.10;0.10;;;;;;;28.65;44.93;100119.66;5033804;28;20184;-71
2022/05/22 11:19:10;;;;;;;0.10;0.10;;;;;;;28.14;45.12;100106.31;5033737;28;20037;-71
2022/05/22 11:21:45;;;;;;;0.10;0.10;;;;;;;28.38;44.88;100117.78;5033998;28;20034;-72
2022/05/22 11:24:28;;;;;;;0.10;0.10;;;;;;;28.62;44.22;100114.91;5033591;28;20117;-71
2022/05/22 11:27:12;;;;;;;;;;;;;;;27.66;46.02;100114.03;5033778;28;20480;-71
2022/05/22 11:29:49;;;;;;;0.10;0.10;;;;;;;28.36;45.67;100106.06;5034182;28;19913;-71
2022/05/22 11:32:57;;;;;;;0.10;0.10;;;;;;;28.20;45.40;100107.25;5034301;28;20029;-71
2022/05/22 11:35:38;;;;;;;0.10;0.10;;;;;;;28.01;45.64;100084.94;5032607;28;20051;-71
2022/05/22 11:38:32;;;;;;;0.10;0.10;;;;;;;27.24;48.01;100105.44;5033458;28;20550;-71
2022/05/22 11:41:04;;;;;;;0.10;0.10;;;;;;;26.99;48.79;100107.34;5033813;28;20476;-70
2022/05/22 11:43:45;;;;;;;0.10;0.10;;;;;;;27.22;48.58;100096.53;5033514;28;20029;-71
2022/05/22 11:46:41;;;;;;;0.10;0.10;;;;;;;27.09;48.88;100099.59;5033585;28;20061;-71
2022/05/22 11:49:26;;;;;;;0.10;0.10;;;;;;;27.17;49.06;100088.63;5033770;28;20029;-71
2022/05/22 11:55:50;;;;;;;0.10;0.10;;;;;;;27.29;49.13;100079.06;5034906;28;20507;-71
2022/05/22 11:58:34;;;;;;;0.10;0.10;;;;;;;27.90;47.45;100085.50;5000178;28;20091;-72
2022/05/22 12:01:20;;;;;;;0.10;0.10;;;;;;;27.81;47.60;100085.56;5032958;28;20030;-71
2022/05/22 12:04:05;;;;;;;0.10;0.10;;;;;;;27.91;47.34;100095.66;5032869;28;20038;-71